Tiempo atmosférico en la estación meteorológica de Santillana del Mar, Altamira, Cantabria (150 m.)



Fecha
DESCASC
Temp. máxima en grados centígrados (hora)
DESCASC
Temp. mínima en grados centígrados (hora)
DESCASC
Temp. media en grados centígrados
DESCASC
Racha de viento máxima en m/sg (hora)
DESCASC
Velocidad máxima media en intervalos de 10 minutos(hora)
DESCASC
Precipitaciones diarias en mm
DESCASC
Precipitaciones de 00:00 a 06:00 en mm
DESCASC
Precipitaciones de 06:00 a 12:00 en mm
DESCASC
Precipitaciones de 12:00 a 18:00 en mm
DESCASC
Precipitaciones de 18:00 a 24:00 en mm
DESCASC
06-12-2018 14.7 (13:50) 9.8 (23:59) 12.3 6.67 (14:00) 3.61 (13:40) 0 0 0 0 0
05-12-2018 17.2 (15:30) 10.2 (09:10) 13.7 6.39 (03:50) 3.89 (01:40) 0 0 0 0 0
04-12-2018 17.9 (13:30) 11 (08:50) 14.4 4.72 (11:40) 3.33 (22:20) 0 0 0 0 0
03-12-2018 16.5 (15:20) 12.2 (00:00) 14.3 9.17 (10:50) 4.44 (10:50) 2.2 0 2.2 0 0
02-12-2018 18.2 (14:40) 11.9 (00:00) 15.1 8.89 (08:50) 5.83 (08:50) 1.8 0.8 1 0 0
01-12-2018 15.9 (15:20) 8.5 (00:00) 12.2 5.83 (18:00) 3.33 (18:10) 1.6 0.4 1.2 0 0
30-11-2018 14.3 (14:40) 7.7 (00:00) 11 6.94 (13:40) 3.33 (09:30) 2.8 2.8 0 0 0
29-11-2018 17.3 (13:30) 10.2 (00:00) 13.7 11.67 (02:50) 8.06 (02:50) 0.2 0 0 0.2 0
28-11-2018 17.3 (14:30) 8.9 (00:00) 13.1 7.78 (20:30) 5 (20:30) 0 0 0 0 0
27-11-2018 13.7 (13:50) 5.5 (00:00) 9.6 5.83 (21:40) 3.33 (21:40) 0 0 0 0 0
26-11-2018 11.1 (22:30) 6.7 (05:10) 8.9 11.94 (13:40) 4.72 (13:30) 32.6 7.6 1.4 22.8 0.8
25-11-2018 13.1 (15:40) 7.9 (00:00) 10.5 13.33 (00:30) 8.61 (00:30) 12 11.8 0 0.2 0
24-11-2018 16.5 (14:00) 5.5 (00:00) 11 12.5 (21:50) 5.28 (21:50) 6 0 0 0 6
23-11-2018 14.3 (14:30) 7 (00:00) 10.7 6.39 (10:40) 4.17 (11:00) 1.6 0 0 0 1.6
22-11-2018 16.8 (14:40) 9.2 (00:00) 13 12.5 (12:20) 7.78 (13:20) 0 0 0 0 0
21-11-2018 14.2 (15:30) 3.7 (00:00) 8.9 8.89 (23:00) 6.11 (23:59) 0 0 0 0 0
20-11-2018 9.7 (00:00) 6 (00:00) 7.8 5.83 (11:00) 2.78 (13:40) 0.6 0.4 0.2 0 0
19-11-2018 16.3 (11:40) 9.7 (00:00) 13 9.17 (02:40) 5.83 (02:40) 0.6 0 0 0 0.6
18-11-2018 16 (15:20) 7.3 (00:00) 11.7 9.44 (23:59) 5.83 (23:59) 0 0 0 0 0
17-11-2018 21.9 (15:10) 11.5 (00:00) 16.7 10 (07:10) 6.11 (07:20) 0 0 0 0 0
16-11-2018 21.3 (15:30) 11.5 (00:00) 16.4 10.28 (23:59) 6.11 (21:50) 0 0 0 0 0
15-11-2018 20.4 (12:30) 11.9 (00:00) 16.1 6.67 (02:10) 4.17 (02:10) 0 0 0 0 0
14-11-2018 20.9 (13:30) 9.5 (00:00) 15.2 7.22 (13:00) 5 (13:00) 0.2 0.2 0 0 0
13-11-2018 15.7 (14:00) 8.3 (00:00) 12 6.39 (14:40) 3.61 (14:40) 0 0 0 0 0
12-11-2018 14.4 (14:30) 9.8 (00:00) 12.1 5.83 (02:10) 4.44 (02:20) 4.6 4.4 0.2 0 0
11-11-2018 18.8 (12:10) 11.3 (00:00) 15 16.67 (05:40) 9.17 (05:50) 22.2 0 0 13.8 8.4
10-11-2018 18.3 (02:00) 9.5 (00:00) 13.9 12.22 (01:50) 7.78 (01:50) 0.8 0.4 0.4 0 0

Gráficas

Temp. máximas Temp. mínimas Temp. medias Precipitaciones Rachas de viento máximas Velocidades máximas media en intervalos de 10 minutos

Datos horarios

Fecha y hora oficial Temperatura (ºC) Velocidad del viento (km/h) Dirección del viento Racha (km/h) Dirección de racha Precipitación (mm) Presión (hPa) Tendencia (hPa) Humedad (%)
2018-12-09 23:00:00 11.2 5 Sudoeste 10 Sudoeste 0 -- -- 86
2018-12-09 22:00:00 11.8 5 Sudoeste 13 Oeste 0 -- -- 86
2018-12-09 21:00:00 12.1 4 Oeste 18 Noroeste 0 -- -- 84
2018-12-09 20:00:00 12.1 6 Oeste 18 Oeste 0 -- -- 84
2018-12-09 19:00:00 12.1 7 Noroeste 15 Oeste 0 -- -- 86
2018-12-09 18:00:00 12.1 4 Oeste 13 Oeste 0 -- -- 88
2018-12-09 17:00:00 12.3 6 Sudoeste 14 Oeste 0 -- -- 87
2018-12-09 16:00:00 12.4 4 Oeste 16 Oeste 0 -- -- 88
2018-12-09 15:00:00 12.6 5 Oeste 19 Oeste 0 -- -- 88
2018-12-09 14:00:00 12.6 9 Noroeste 25 Oeste 0 -- -- 87
2018-12-09 13:00:00 12.8 9 Noroeste 27 Oeste 0 -- -- 89
2018-12-09 12:00:00 12.8 10 Noroeste 29 Noroeste 0 -- -- 89
2018-12-09 11:00:00 12.7 11 Noroeste 28 Noroeste 0 -- -- 93
2018-12-09 10:00:00 12.7 6 Oeste 22 Oeste 0 -- -- 96
2018-12-09 09:00:00 12.7 6 Oeste 26 Oeste 0 -- -- 94
2018-12-09 08:00:00 12.7 6 Noroeste 22 Noroeste 0 -- -- 93
2018-12-09 07:00:00 12.7 5 Sudoeste 18 Sudoeste 0 -- -- 85
2018-12-09 06:00:00 12.8 6 Sudoeste 18 Oeste 0 -- -- 89
2018-12-09 05:00:00 13 5 Sudoeste 15 Oeste 0 -- -- 90
2018-12-09 04:00:00 12.7 5 Sudoeste 17 Noroeste 0 -- -- 93
2018-12-09 03:00:00 12.2 6 Sudoeste 17 Sudoeste 0 -- -- 89
2018-12-09 02:00:00 13.4 5 Sudoeste 23 Oeste 0 -- -- 82
2018-12-09 01:00:00 12.3 7 Sudoeste 15 Sudoeste 0 -- -- 79
2018-12-09 00:00:00 11.9 9 Sudoeste 14 Sudoeste 0 -- -- 73
2018-12-08 23:00:00 13.5 5 Sudoeste 17 Sudoeste 0 -- -- 62
2018-12-08 22:00:00 12.3 7 Sudoeste 17 Sudoeste 0 -- -- 70
2018-12-08 21:00:00 12.1 8 Sudoeste 21 Sudoeste 0 -- -- 69
2018-12-08 20:00:00 10.5 6 Sudoeste 12 Oeste 0 -- -- 78
2018-12-08 19:00:00 11.1 7 Sudoeste 13 Sudoeste 0 -- -- 77
2018-12-08 18:00:00 11.3 8 Sudoeste 10 Sudoeste 0 -- -- 74
2018-12-08 17:00:00 12.8 0 Calma 6 Norte 0 -- -- 61
2018-12-08 16:00:00 13.7 5 Noroeste 15 Noroeste 0 -- -- 60
2018-12-08 15:00:00 15.1 3 Norte 10 Sur 0 -- -- 54
2018-12-08 14:00:00 14.7 3 Sur 15 Sur 0 -- -- 55
2018-12-08 13:00:00 13.9 9 Sur 15 Sur 0 -- -- 60
2018-12-08 12:00:00 12.9 6 Sur 14 Sudoeste 0 -- -- 71
2018-12-08 11:00:00 10.5 9 Sudoeste 18 Sudoeste 0 -- -- 74
2018-12-08 10:00:00 8.6 11 Sudoeste 17 Sudoeste 0 -- -- 78
2018-12-08 09:00:00 7.5 11 Sudoeste 18 Sudoeste 0 -- -- 82
2018-12-08 08:00:00 7.3 11 Sudoeste 16 Sudoeste 0 -- -- 83
2018-12-08 07:00:00 7.8 7 Sudoeste 16 Sudoeste 0 -- -- 81
2018-12-08 06:00:00 7.6 5 Sudoeste 15 Sudoeste 0 -- -- 83
2018-12-08 05:00:00 8.2 10 Sudoeste 14 Sudoeste 0 -- -- 81
2018-12-08 04:00:00 8.6 8 Sudoeste 13 Oeste 0 -- -- 81
2018-12-08 03:00:00 10.1 4 Oeste 20 Oeste 0 -- -- 79
2018-12-08 02:00:00 10.7 9 Oeste 26 Oeste 0 -- -- 80
2018-12-08 01:00:00 11.1 6 Oeste 22 Oeste 0 -- -- 75
2018-12-08 00:00:00 10.6 5 Oeste 20 Oeste 0 -- -- 73
2018-12-07 23:00:00 10.9 8 Oeste 21 Oeste 0 -- -- 77
2018-12-07 22:00:00 10.9 8 Oeste 23 Oeste 0 -- -- 81
2018-12-07 21:00:00 10.7 11 Oeste 30 Oeste 0.2 -- -- 89
2018-12-07 20:00:00 10.1 15 Oeste 37 Noroeste 0.6 -- -- 97
2018-12-07 19:00:00 10.6 13 Oeste 35 Oeste 0 -- -- 96
2018-12-07 18:00:00 10.9 15 Oeste 41 Oeste 0.4 -- -- 95
2018-12-07 17:00:00 11.7 18 Noroeste 41 Noroeste 0.2 -- -- 95
2018-12-07 16:00:00 11.8 18 Noroeste 46 Oeste 0.4 -- -- 94
2018-12-07 15:00:00 15.4 13 Noroeste 27 Noroeste 0 -- -- 78
2018-12-07 14:00:00 15.1 5 Sudoeste 19 Sudoeste 0 -- -- 69
2018-12-07 13:00:00 15.2 9 Sur 18 Sudoeste 0 -- -- 63
2018-12-07 12:00:00 13.7 11 Sudoeste 18 Sudoeste 0 -- -- 66
2018-12-07 11:00:00 11.8 6 Sur 14 Sudoeste 0 -- -- 67
2018-12-07 10:00:00 9.5 11 Sudoeste 15 Sudoeste 0 -- -- 72
2018-12-07 09:00:00 6.6 9 Sur 18 Sudoeste 0 -- -- 79
2018-12-07 08:00:00 9 8 Sudoeste 18 Sudoeste 0 -- -- 67
2018-12-07 07:00:00 8.4 13 Sudoeste 19 Sudoeste 0 -- -- 73
2018-12-07 06:00:00 9 12 Sudoeste 18 Sudoeste 0 -- -- 73
2018-12-07 05:00:00 8.7 11 Sudoeste 19 Sudoeste 0 -- -- 76
2018-12-07 04:00:00 8.7 11 Sudoeste 20 Oeste 0 -- -- 79
2018-12-07 03:00:00 7.4 12 Sur 18 Sudoeste 0 -- -- 87
2018-12-07 02:00:00 7.5 10 Sur 18 Sudoeste 0 -- -- 88
2018-12-07 01:00:00 9 11 Sudoeste 17 Sudoeste 0 -- -- 84
2018-12-07 00:00:00 9.8 9 Sudoeste 15 Sudoeste 0 -- -- 84
2018-12-06 23:00:00 10.4 6 Sudoeste 12 Sudoeste 0 -- -- 82
2018-12-06 22:00:00 11.7 6 Sudoeste 10 Sudoeste 0 -- -- 76
2018-12-06 21:00:00 12.1 5 Sudoeste 9 Sudoeste 0 -- -- 76
2018-12-06 20:00:00 12.2 7 Sudoeste 10 Sudoeste 0 -- -- 76
2018-12-06 19:00:00 12.5 6 Sudoeste 10 Sudoeste 0 -- -- 76
2018-12-06 18:00:00 12.8 5 Sudoeste 10 Sudoeste 0 -- -- 76
2018-12-06 17:00:00 13.4 4 Sudoeste 10 Oeste 0 -- -- 72
2018-12-06 16:00:00 13.8 5 Oeste 20 Norte 0 -- -- 74
2018-12-06 15:00:00 14.2 10 Noroeste 23 Oeste 0 -- -- 73
2018-12-06 14:00:00 14.6 10 Noroeste 24 Oeste 0 -- -- 73
2018-12-06 13:00:00 14.5 8 Noroeste 21 Noroeste 0 -- -- 75
2018-12-06 12:00:00 14.5 6 Noroeste 17 Sudoeste 0 -- -- 76
2018-12-06 11:00:00 13.1 6 Sudoeste 10 Sur 0 -- -- 86
2018-12-06 10:00:00 12.3 8 Sudoeste 14 Sudoeste 0 -- -- 87
2018-12-06 09:00:00 11.4 9 Sudoeste 14 Sudoeste 0 -- -- 87
2018-12-06 08:00:00 11.5 4 Sudoeste 9 Sur 0 -- -- 91
2018-12-06 07:00:00 11.7 5 Sudoeste 10 Sudoeste 0 -- -- 89
2018-12-06 06:00:00 11.7 5 Sur 13 Oeste 0 -- -- 88
2018-12-06 05:00:00 11.9 6 Sudoeste 10 Sudoeste 0 -- -- 89
2018-12-06 04:00:00 12 3 Sur 5 Sur 0 -- -- 91
2018-12-06 03:00:00 12.5 3 Sudeste 8 Sudoeste 0 -- -- 87
2018-12-06 02:00:00 12.7 5 Sudoeste 8 Sudoeste 0 -- -- 85
2018-12-06 01:00:00 13.5 3 Sur 12 Noroeste 0 -- -- 83
2018-12-06 00:00:00 12.9 6 Sudoeste 8 Sudoeste 0 -- -- 81
2018-12-05 23:00:00 12.3 3 Sudoeste 9 Sudoeste 0 -- -- 84
2018-12-05 22:00:00 13.6 3 Sudoeste 10 Sudoeste 0 -- -- 78
2018-12-05 21:00:00 13.8 5 Sudoeste 12 Sudoeste 0 -- -- 76
2018-12-05 20:00:00 14.2 8 Sudoeste 13 Sudoeste 0 -- -- 75
2018-12-05 19:00:00 14.8 9 Sudoeste 15 Sudoeste 0 -- -- 78
2018-12-05 18:00:00 14.2 5 Sur 9 Sur 0 -- -- 83
2018-12-05 17:00:00 15.6 6 Sudeste 16 Sudeste 0 -- -- 79
2018-12-05 16:00:00 17 10 Sur 13 Sur 0 -- -- 72
2018-12-05 15:00:00 16.6 2 Norte 10 Noroeste 0 -- -- 69
2018-12-05 14:00:00 15.3 5 Sur 11 Sur 0 -- -- 86
2018-12-05 13:00:00 15.3 4 Norte 17 Norte 0 -- -- 83
2018-12-05 12:00:00 13.4 6 Sur 15 Sudoeste 0 -- -- 90
2018-12-05 11:00:00 11.5 8 Sudoeste 14 Sudoeste 0 -- -- 95
2018-12-05 10:00:00 11.1 2 Sudoeste 12 Sudoeste 0 -- -- 100
2018-12-05 09:00:00 10.3 8 Sudoeste 12 Sudoeste 0 -- -- 100
2018-12-05 08:00:00 11.5 4 Sudoeste 10 Sudoeste 0 -- -- 100
2018-12-05 07:00:00 11.5 6 Sudoeste 22 Oeste 0 -- -- 100
2018-12-05 06:00:00 12.1 9 Oeste 21 Oeste 0 -- -- 99
2018-12-05 05:00:00 11.8 4 Sudeste 19 Oeste 0 -- -- 97
2018-12-05 04:00:00 12.4 8 Sudoeste 23 Noroeste 0 -- -- 92
2018-12-05 03:00:00 11.8 4 Sur 8 Sur 0 -- -- 76
2018-12-05 02:00:00 12.6 4 Oeste 19 Sudoeste 0 -- -- 70
2018-12-05 01:00:00 12.2 8 Sur 15 Sudoeste 0 -- -- 77
2018-12-05 00:00:00 13.7 9 Sudoeste 15 Sudoeste 0 -- -- 74
2018-12-04 23:00:00 14.7 9 Sudoeste 15 Sudoeste 0 -- -- 72
2018-12-04 22:00:00 14 8 Sudoeste 12 Sudoeste 0 -- -- 80
2018-12-04 21:00:00 13.8 8 Sudoeste 15 Sudoeste 0 -- -- 85
2018-12-04 20:00:00 14.3 4 Sudoeste 9 Sudoeste 0 -- -- 88
2018-12-04 19:00:00 14.3 4 Sudoeste 10 Sudoeste 0 -- -- 94
2018-12-04 18:00:00 15.3 2 Sudoeste 4 Sudoeste 0 -- -- 89
2018-12-04 17:00:00 16.5 2 Norte 8 Nordeste 0 -- -- 85
2018-12-04 16:00:00 17.7 5 Este 11 Nordeste 0 -- -- 81
2018-12-04 15:00:00 17.8 4 Este 12 Este 0 -- -- 81
2018-12-04 14:00:00 17.4 6 Nordeste 12 Nordeste 0 -- -- 80
2018-12-04 13:00:00 17.4 5 Este 13 Este 0 -- -- 76
2018-12-04 12:00:00 16.7 10 Sudeste 17 Sudeste 0 -- -- 79
2018-12-04 11:00:00 14.6 10 Sudeste 16 Sudeste 0 -- -- 88
2018-12-04 10:00:00 12.5 6 Sur 12 Sur 0 -- -- 100
2018-12-04 09:00:00 11.2 7 Sur 12 Sur 0 -- -- 100
2018-12-04 08:00:00 11.6 7 Sudoeste 10 Sudoeste 0 -- -- 100
2018-12-04 07:00:00 12 4 Sur 6 Sur 0 -- -- 100
2018-12-04 06:00:00 12.7 5 Sur 8 Sudoeste 0 -- -- 100
2018-12-04 05:00:00 12.8 2 Sudoeste 7 Sudoeste 0 -- -- 100
2018-12-04 04:00:00 13 0 Calma 3 Norte 0 -- -- 100
2018-12-04 03:00:00 13.3 0 Calma 6 Sudoeste 0 -- -- 100
2018-12-04 02:00:00 12.9 5 Sur 6 Sudoeste 0 -- -- 100
2018-12-04 01:00:00 13.3 0 Calma 6 Norte 0 -- -- 100
2018-12-04 00:00:00 13.5 5 Norte 7 Norte 0 -- -- 99
2018-12-03 23:00:00 13.4 2 Sur 7 Noroeste 0 -- -- 98
2018-12-03 22:00:00 14.2 5 Noroeste 8 Noroeste 0 -- -- 97
2018-12-03 21:00:00 14.3 4 Norte 5 Norte 0 -- -- 95
2018-12-03 20:00:00 14.5 4 Noroeste 9 Norte 0 -- -- 95
2018-12-03 19:00:00 15 6 Norte 11 Norte 0 -- -- 91
2018-12-03 18:00:00 15.3 4 Sur 6 Sur 0 -- -- 88
2018-12-03 17:00:00 16.1 3 Sur 14 Sudoeste 0 -- -- 90
2018-12-03 16:00:00 16.4 6 Sudoeste 13 Sur 0 -- -- 87
2018-12-03 15:00:00 16.3 8 Sudoeste 15 Sudoeste 0 -- -- 86
2018-12-03 14:00:00 15.6 10 Sudoeste 15 Sudoeste 0 -- -- 89
2018-12-03 13:00:00 14.6 4 Sur 14 Sudeste 0 -- -- 94
2018-12-03 12:00:00 13.3 5 Oeste 21 Oeste 0.6 -- -- 95
2018-12-03 11:00:00 13.1 13 Oeste 33 Oeste 1.6 -- -- 91
2018-12-03 10:00:00 14.2 5 Sur 13 Sur 0 -- -- 75
2018-12-03 09:00:00 13.5 8 Sur 10 Sur 0 -- -- 75
2018-12-03 08:00:00 12.2 7 Sur 9 Sur 0 -- -- 79
2018-12-03 07:00:00 12.7 6 Sudeste 10 Sudeste 0 -- -- 75
2018-12-03 06:00:00 13.6 5 Sudeste 12 Este 0 -- -- 72
2018-12-03 05:00:00 14 3 Sudeste 13 Sur 0 -- -- 70
2018-12-03 04:00:00 14.3 7 Sudeste 14 Sur 0 -- -- 70
2018-12-03 03:00:00 14.1 8 Sur 12 Sudeste 0 -- -- 69
2018-12-03 02:00:00 14.4 8 Sur 17 Sudeste 0 -- -- 66
2018-12-03 01:00:00 14.8 12 Sudoeste 22 Sur 0 -- -- 62
2018-12-03 00:00:00 14.5 9 Sudoeste 17 Sudoeste 0 -- -- 61
2018-12-02 23:00:00 14.4 7 Sudoeste 14 Sudoeste 0 -- -- 62
2018-12-02 22:00:00 14 10 Sudoeste 13 Sudoeste 0 -- -- 63
2018-12-02 21:00:00 13.7 10 Sur 16 Sur 0 -- -- 65
2018-12-02 20:00:00 14.7 10 Sur 23 Sudeste 0 -- -- 62
2018-12-02 19:00:00 14.6 11 Sur 22 Sudeste 0 -- -- 66
2018-12-02 18:00:00 14 6 Sur 9 Sur 0 -- -- 82
2018-12-02 17:00:00 15.1 0 Calma 6 Sudeste 0 -- -- 83
2018-12-02 16:00:00 16.2 0 Calma 5 Sur 0 -- -- 82
2018-12-02 15:00:00 17.8 0 Calma 9 Sudeste 0 -- -- 67
2018-12-02 14:00:00 17.5 8 Sudeste 14 Sudeste 0 -- -- 61
2018-12-02 13:00:00 17.5 5 Sur 10 Sur 0 -- -- 66
2018-12-02 12:00:00 15.6 6 Sur 17 Sudeste 0 -- -- 72
2018-12-02 11:00:00 14.2 10 Sudeste 24 Sur 0 -- -- 69
2018-12-02 10:00:00 14 14 Sudeste 30 Sur 0.2 -- -- 70
2018-12-02 09:00:00 14 19 Sur 32 Sur 0 -- -- 70
2018-12-02 08:00:00 12.5 16 Sur 23 Sur 0.2 -- -- 83
2018-12-02 07:00:00 12.5 2 Nordeste 10 Sudoeste 0.6 -- -- 84
2018-12-02 06:00:00 12.6 7 Sur 27 Sur 0.2 -- -- 82
2018-12-02 05:00:00 11.9 15 Sudoeste 23 Sudoeste 0.6 -- -- 83
2018-12-02 04:00:00 13.5 6 Sur 9 Sudeste 0 -- -- 71
2018-12-02 03:00:00 13.7 3 Sudoeste 13 Sudoeste 0 -- -- 71
2018-12-02 02:00:00 13.5 10 Sudoeste 17 Sudoeste 0 -- -- 72
2018-12-02 01:00:00 12.7 10 Sudoeste 17 Sudoeste 0 -- -- 78
2018-12-02 00:00:00 13.1 6 Sudoeste 14 Sudoeste 0 -- -- 76
2018-12-01 23:00:00 12.6 0 Calma 13 Sur 0 -- -- 80
2018-12-01 22:00:00 12.7 8 Sur 17 Sur 0 -- -- 79
2018-12-01 21:00:00 14.1 10 Sudeste 18 Sudeste 0 -- -- 71
2018-12-01 20:00:00 14.3 8 Sudeste 20 Sudeste 0 -- -- 70
2018-12-01 19:00:00 14.6 8 Sudeste 19 Sudeste 0 -- -- 68
2018-12-01 18:00:00 14.9 11 Sudeste 21 Sudeste 0 -- -- 65
2018-12-01 17:00:00 15.3 8 Sudeste 17 Sur 0 -- -- 71
2018-12-01 16:00:00 15.5 4 Sur 6 Sur 0 -- -- 77
2018-12-01 15:00:00 15.7 5 Sur 9 Sur 0 -- -- 73
2018-12-01 14:00:00 14.8 7 Sur 19 Sur 0 -- -- 73
2018-12-01 13:00:00 13.5 9 Sur 15 Sudoeste 0 -- -- 78
2018-12-01 12:00:00 12.1 9 Sudoeste 15 Sudoeste 0 -- -- 78
2018-12-01 11:00:00 11.1 4 Sur 17 Sur 0 -- -- 83
2018-12-01 10:00:00 9.2 7 Sur 12 Sur 0 -- -- 93
2018-12-01 09:00:00 9.3 6 Sudeste 12 Sudeste 0.2 -- -- 88
2018-12-01 08:00:00 8.9 5 Sur 12 Sur 0.2 -- -- 91
2018-12-01 07:00:00 8.8 8 Sur 11 Sudoeste 0.8 -- -- 89
2018-12-01 06:00:00 9.4 8 Sudoeste 12 Sudoeste 0.4 -- -- 81
2018-12-01 05:00:00 9.3 4 Sudoeste 10 Sudoeste 0 -- -- 77
2018-12-01 04:00:00 8.8 8 Sudoeste 12 Sudoeste 0 -- -- 82
2018-12-01 03:00:00 9.1 8 Sudoeste 14 Sudoeste 0 -- -- 78
2018-12-01 02:00:00 9.6 4 Sudoeste 11 Sudoeste 0 -- -- 76
2018-12-01 01:00:00 9.4 8 Sudoeste 12 Sudoeste 0 -- -- 76
2018-12-01 00:00:00 8.6 9 Sudoeste 15 Sudoeste 0 -- -- 78
2018-11-30 23:00:00 7.7 9 Sudoeste 16 Sudoeste 0 -- -- 85
2018-11-30 22:00:00 8.7 10 Sudoeste 15 Sudoeste 0 -- -- 83
2018-11-30 21:00:00 8.9 9 Sudoeste 14 Sudoeste 0 -- -- 85
2018-11-30 20:00:00 10 7 Sudoeste 13 Sudoeste 0 -- -- 84
2018-11-30 19:00:00 10.4 5 Sudoeste 9 Sudoeste 0 -- -- 87
2018-11-30 18:00:00 11.3 5 Oeste 17 Noroeste 0 -- -- 83
2018-11-30 17:00:00 12.5 7 Noroeste 24 Noroeste 0 -- -- 78
2018-11-30 16:00:00 13.4 9 Noroeste 22 Oeste 0 -- -- 71
2018-11-30 15:00:00 14 7 Noroeste 19 Norte 0 -- -- 69
2018-11-30 14:00:00 13.1 7 Noroeste 25 Oeste 0 -- -- 70
2018-11-30 13:00:00 13.8 4 Oeste 17 Oeste 0 -- -- 66
2018-11-30 12:00:00 12.6 5 Sudoeste 14 Noroeste 0 -- -- 72
2018-11-30 11:00:00 11.2 8 Sudoeste 15 Sudoeste 0 -- -- 80
2018-11-30 10:00:00 9 11 Sudoeste 19 Sudoeste 0 -- -- 85
2018-11-30 09:00:00 8.5 10 Sudoeste 17 Sudoeste 0 -- -- 89
2018-11-30 08:00:00 8.4 11 Sudoeste 15 Sudoeste 0 -- -- 92
2018-11-30 07:00:00 8.8 9 Sudoeste 16 Sudoeste 0 -- -- 92
2018-11-30 06:00:00 8.9 8 Sudoeste 13 Sudoeste 0 -- -- 93
2018-11-30 05:00:00 9.4 8 Sudoeste 12 Sudoeste 0 -- -- 95
2018-11-30 04:00:00 10 9 Sudoeste 14 Sudoeste 0 -- -- 92
2018-11-30 03:00:00 9.9 9 Sudoeste 14 Sudoeste 0 -- -- 95
2018-11-30 02:00:00 10.3 4 Sudoeste 12 Sudoeste 2.8 -- -- 92
2018-11-30 01:00:00 11.1 3 Oeste 13 Sur 0 -- -- 82
2018-11-30 00:00:00 10.2 7 Sudoeste 9 Sudoeste 0 -- -- 81
2018-11-29 23:00:00 11.2 4 Sur 14 Sudeste 0 -- -- 77
2018-11-29 22:00:00 11.3 6 Este 14 Sudeste 0 -- -- 75
2018-11-29 21:00:00 11.1 6 Sudeste 11 Sudeste 0 -- -- 82
2018-11-29 20:00:00 11.7 3 Nordeste 7 Nordeste 0 -- -- 94
2018-11-29 19:00:00 12.1 3 Norte 4 Norte 0 -- -- 90
2018-11-29 18:00:00 12.3 0 Calma 12 Noroeste 0 -- -- 89
2018-11-29 17:00:00 12.7 7 Noroeste 13 Noroeste 0.2 -- -- 90
2018-11-29 16:00:00 12.8 2 Norte 21 Sudeste 0 -- -- 79
2018-11-29 15:00:00 16 8 Sudeste 18 Sur 0 -- -- 57
2018-11-29 14:00:00 17.2 4 Noroeste 9 Noroeste 0 -- -- 53
2018-11-29 13:00:00 15.9 2 Sudeste 13 Sudeste 0 -- -- 57
2018-11-29 12:00:00 15.1 14 Sur 23 Sur 0 -- -- 52
2018-11-29 11:00:00 14.9 20 Sur 30 Sudeste 0 -- -- 46
2018-11-29 10:00:00 13.5 10 Sur 27 Sur 0 -- -- 46
2018-11-29 09:00:00 13.8 21 Sur 31 Sur 0 -- -- 39
2018-11-29 08:00:00 14.7 15 Sur 30 Sur 0 -- -- 29
2018-11-29 07:00:00 14.5 21 Sur 32 Sur 0 -- -- 31
2018-11-29 06:00:00 14.7 10 Sudeste 21 Sudeste 0 -- -- 38
2018-11-29 05:00:00 14.5 9 Sudeste 23 Sur 0 -- -- 38
2018-11-29 04:00:00 14.3 12 Sudeste 28 Sur 0 -- -- 40
2018-11-29 03:00:00 14.7 24 Sur 42 Sur 0 -- -- 42
2018-11-29 02:00:00 13.8 11 Sudeste 26 Sudeste 0 -- -- 44
2018-11-29 01:00:00 12.8 14 Sur 23 Sudeste 0 -- -- 54
2018-11-29 00:00:00 13 11 Sur 19 Sur 0 -- -- 54
2018-11-28 23:00:00 13.1 9 Sudoeste 13 Sudoeste 0 -- -- 51
2018-11-28 22:00:00 13 12 Sur 24 Sudeste 0 -- -- 55
2018-11-28 21:00:00 13.6 14 Sudeste 28 Sudeste 0 -- -- 52
2018-11-28 13:00:00 -- -- -- -- -- -- -- -- --
2018-11-28 12:00:00 14.3 8 Oeste 20 Oeste 0 -- -- 75
2018-11-28 11:00:00 13.2 4 Oeste 17 Sudoeste 0 -- -- 63
2018-11-28 10:00:00 10.3 3 Sudoeste 14 Oeste 0 -- -- 75
2018-11-28 09:00:00 9.7 3 Norte 11 Noroeste 0 -- -- 67
2018-11-28 08:00:00 9.9 5 Norte 14 Sudoeste 0 -- -- 59
2018-11-28 07:00:00 11.1 8 Sudoeste 14 Sudoeste 0 -- -- 54
2018-11-28 06:00:00 10.6 9 Sudoeste 14 Sudoeste 0 -- -- 57
2018-11-28 05:00:00 10.3 8 Sur 13 Sur 0 -- -- 59
2018-11-28 04:00:00 10.1 5 Sur 10 Sur 0 -- -- 59
2018-11-28 03:00:00 10.4 6 Sudoeste 10 Sudoeste 0 -- -- 57
2018-11-28 02:00:00 10.4 0 Calma 15 Sudoeste 0 -- -- 61
2018-11-28 01:00:00 10.5 11 Sudoeste 17 Sudoeste 0 -- -- 64
2018-11-28 00:00:00 10.8 6 Sudoeste 11 Sudoeste 0 -- -- 61
2018-11-27 23:00:00 9.6 6 Sudoeste 9 Sur 0 -- -- 74
2018-11-27 22:00:00 10.5 8 Sur 21 Sudeste 0 -- -- 70
2018-11-27 21:00:00 10.8 11 Sudeste 19 Sudeste 0 -- -- 70
2018-11-27 20:00:00 10 4 Sudeste 10 Sudeste 0 -- -- 85
2018-11-27 19:00:00 10.6 7 Sudoeste 12 Sudoeste 0 -- -- 81
2018-11-27 18:00:00 11.2 6 Sudoeste 12 Oeste 0 -- -- 81
2018-11-27 17:00:00 11.8 5 Noroeste 8 Norte 0 -- -- 74
2018-11-27 16:00:00 13 0 Calma 9 Este 0 -- -- 70
2018-11-27 15:00:00 13.4 4 Este 12 Este 0 -- -- 66
2018-11-27 14:00:00 13.7 5 Este 12 Este 0 -- -- 64
2018-11-27 13:00:00 12.6 5 Sudeste 9 Sudeste 0 -- -- 68
2018-11-27 12:00:00 11 6 Sur 11 Sudoeste 0 -- -- 72
2018-11-27 11:00:00 9.6 6 Sur 10 Sur 0 -- -- 74
2018-11-27 10:00:00 7.9 8 Sudoeste 15 Sudoeste 0 -- -- 75
2018-11-27 09:00:00 6.9 9 Sudoeste 15 Sudoeste 0 -- -- 78
2018-11-27 08:00:00 6.4 10 Sudoeste 18 Sudoeste 0 -- -- 81
2018-11-27 07:00:00 6.1 8 Sudoeste 13 Sur 0 -- -- 87
2018-11-27 06:00:00 6 10 Sur 15 Sur 0 -- -- 89
2018-11-27 05:00:00 6.8 11 Sudoeste 17 Sudoeste 0 -- -- 86
2018-11-27 04:00:00 6.8 10 Sudoeste 19 Sudoeste 0 -- -- 86
2018-11-27 03:00:00 7.7 9 Sudoeste 18 Sudoeste 0 -- -- 83
2018-11-27 02:00:00 8.3 12 Sudoeste 18 Sudoeste 0 -- -- 86
2018-11-27 01:00:00 9.8 6 Sudoeste 16 Sudoeste 0 -- -- 84
2018-11-27 00:00:00 10.3 9 Oeste 27 Oeste 0 -- -- 84
2018-11-26 23:00:00 10.9 8 Oeste 25 Noroeste 0 -- -- 85
2018-11-26 22:00:00 11 10 Oeste 32 Oeste 0 -- -- 83
2018-11-26 21:00:00 10.6 6 Oeste 35 Oeste 0.2 -- -- 88
2018-11-26 20:00:00 10.5 12 Oeste 32 Noroeste 0 -- -- 87
2018-11-26 19:00:00 9.7 6 Sudoeste 36 Oeste 0.6 -- -- 93
2018-11-26 18:00:00 9.5 3 Oeste 22 Sudoeste 3.6 -- -- 95
2018-11-26 17:00:00 9.5 5 Noroeste 23 Oeste 5 -- -- 96
2018-11-26 16:00:00 9.5 6 Noroeste 31 Oeste 7.2 -- -- 98
2018-11-26 15:00:00 9.8 12 Oeste 39 Noroeste 5.2 -- -- 95
2018-11-26 14:00:00 10 13 Oeste 43 Oeste 0.8 -- -- 94
2018-11-26 13:00:00 9.8 11 Oeste 37 Oeste 1 -- -- 88
2018-11-26 12:00:00 10.1 10 Sudoeste 31 Oeste 0 -- -- 83
2018-11-26 11:00:00 9.3 12 Oeste 32 Oeste 0 -- -- 90
2018-11-26 10:00:00 8.4 9 Sudoeste 23 Oeste 0 -- -- 92
2018-11-26 09:00:00 7.5 8 Sudoeste 30 Oeste 1.4 -- -- 94
2018-11-26 08:00:00 7.9 9 Oeste 24 Oeste 0 -- -- 85
2018-11-26 07:00:00 7.1 6 Oeste 24 Oeste 0 -- -- 86
2018-11-26 06:00:00 6.7 10 Oeste 27 Noroeste 0 -- -- 91
2018-11-26 05:00:00 6.8 10 Oeste 27 Oeste 1.2 -- -- 95
2018-11-26 04:00:00 7.1 8 Sudoeste 25 Sudoeste 5.8 -- -- 95
2018-11-26 03:00:00 7.4 13 Sudoeste 22 Sudoeste 0.6 -- -- 94
2018-11-26 02:00:00 8.6 3 Oeste 8 Noroeste 0 -- -- 83
2018-11-26 01:00:00 8.6 2 Sudoeste 9 Sudoeste 0 -- -- 81
2018-11-26 00:00:00 8 8 Sudoeste 14 Oeste 0 -- -- 84
2018-11-25 23:00:00 7.9 8 Sudoeste 15 Sudoeste 0 -- -- 86
2018-11-25 22:00:00 8.6 0 Calma 3 Nordeste 0 -- -- 79
2018-11-25 21:00:00 8.5 0 Calma 6 Sur 0 -- -- 81
2018-11-25 20:00:00 9 5 Sur 6 Sudoeste 0 -- -- 80
2018-11-25 19:00:00 9.3 0 Calma 3 Sudeste 0 -- -- 77
2018-11-25 18:00:00 9.3 0 Calma 8 Norte 0 -- -- 77
2018-11-25 17:00:00 10.8 4 Noroeste 8 Noroeste 0 -- -- 73
2018-11-25 16:00:00 12.9 5 Norte 15 Norte 0 -- -- 60
2018-11-25 15:00:00 12.3 3 Noroeste 19 Oeste 0 -- -- 62
2018-11-25 14:00:00 12.9 8 Noroeste 20 Norte 0 -- -- 59
2018-11-25 13:00:00 12.9 6 Noroeste 18 Noroeste 0.2 -- -- 57
2018-11-25 12:00:00 12.6 8 Oeste 19 Oeste 0 -- -- 58
2018-11-25 11:00:00 11.2 7 Sur 13 Sudoeste 0 -- -- 73
2018-11-25 10:00:00 8.8 7 Sudoeste 16 Oeste 0 -- -- 81
2018-11-25 09:00:00 8.8 8 Sudoeste 19 Sudoeste 0 -- -- 78
2018-11-25 08:00:00 8.1 7 Sudoeste 18 Sudoeste 0 -- -- 83
2018-11-25 07:00:00 8.4 9 Sudoeste 24 Oeste 0 -- -- 88
2018-11-25 06:00:00 8.7 9 Sudoeste 27 Oeste 0 -- -- 91
2018-11-25 05:00:00 8.9 9 Oeste 36 Noroeste 0 -- -- 96
2018-11-25 04:00:00 9.2 12 Oeste 40 Noroeste 0.4 -- -- 98
2018-11-25 03:00:00 9.1 9 Oeste 36 Noroeste 1.4 -- -- 99
2018-11-25 02:00:00 9.3 18 Noroeste 41 Noroeste 4.4 -- -- 100
2018-11-25 01:00:00 10.9 14 Norte 48 Noroeste 5.6 -- -- 98
2018-11-25 00:00:00 12.4 9 Oeste 25 Sudoeste 6 -- -- 85
2018-11-24 23:00:00 12.6 5 Oeste 21 Sudoeste 0 -- -- 61
2018-11-24 22:00:00 12.4 12 Sur 45 Sudoeste 0 -- -- 60
2018-11-24 21:00:00 13.5 15 Sur 30 Sur 0 -- -- 59
2018-11-24 20:00:00 13.1 11 Sur 27 Sur 0 -- -- 64
2018-11-24 19:00:00 11.9 8 Sur 17 Sur 0 -- -- 69
2018-11-24 18:00:00 13.2 10 Sudeste 32 Sur 0 -- -- 62
2018-11-24 17:00:00 14 12 Sur 23 Sur 0 -- -- 63
2018-11-24 16:00:00 14.6 8 Sur 26 Sur 0 -- -- 62
2018-11-24 15:00:00 15.1 14 Sudeste 22 Sudeste 0 -- -- 62
2018-11-24 14:00:00 16.5 10 Sudeste 17 Sudeste 0 -- -- 60
2018-11-24 13:00:00 15.1 9 Sur 14 Sudeste 0 -- -- 66
2018-11-24 12:00:00 14.6 6 Sur 12 Sudeste 0 -- -- 67
2018-11-24 11:00:00 11.7 4 Sudoeste 6 Sudoeste 0 -- -- 71
2018-11-24 10:00:00 9.7 4 Sur 11 Sudoeste 0 -- -- 80
2018-11-24 09:00:00 8.9 3 Sudoeste 13 Sudoeste 0 -- -- 77
2018-11-24 08:00:00 8.8 4 Sudoeste 6 Sudoeste 0 -- -- 77
2018-11-24 07:00:00 9.9 3 Oeste 9 Sudoeste 0 -- -- 67
2018-11-24 06:00:00 9.8 3 Sudoeste 8 Sudoeste 0 -- -- 70
2018-11-24 05:00:00 9.6 6 Sudoeste 9 Sudoeste 0 -- -- 75
2018-11-24 04:00:00 10 4 Noroeste 9 Noroeste 0 -- -- 76
2018-11-24 03:00:00 9.6 3 Sur 9 Sudoeste 0 -- -- 69
2018-11-24 02:00:00 8.9 9 Sudoeste 12 Sur 0 -- -- 74
2018-11-24 01:00:00 6.6 8 Sudoeste 13 Sudoeste 0 -- -- 94
2018-11-24 00:00:00 7 6 Sudoeste 12 Oeste 0.2 -- -- 95
2018-11-23 23:00:00 7.7 8 Sudoeste 10 Sudoeste 0 -- -- 96
2018-11-23 22:00:00 8.2 5 Sur 8 Sur 0 -- -- 96
2018-11-23 21:00:00 8.4 3 Nordeste 8 Este 0 -- -- 95
2018-11-23 20:00:00 8.7 4 Este 9 Este 0 -- -- 94
2018-11-23 19:00:00 9.5 0 Calma 13 Norte 1.4 -- -- 91
2018-11-23 18:00:00 11.3 6 Noroeste 15 Norte 0 -- -- 78
2018-11-23 17:00:00 11.9 4 Nordeste 15 Nordeste 0 -- -- 74
2018-11-23 16:00:00 13.7 8 Norte 13 Norte 0 -- -- 70
2018-11-23 15:00:00 14.1 5 Nordeste 12 Nordeste 0 -- -- 67
2018-11-23 14:00:00 14 4 Norte 14 Noroeste 0 -- -- 64
2018-11-23 13:00:00 13.4 9 Noroeste 15 Norte 0 -- -- 69
2018-11-23 12:00:00 12.6 5 Noroeste 20 Noroeste 0 -- -- 74
2018-11-23 11:00:00 12.5 15 Norte 23 Noroeste 0 -- -- 75
2018-11-23 10:00:00 12.4 3 Oeste 12 Sudoeste 0 -- -- 69
2018-11-23 09:00:00 10.8 8 Sudoeste 13 Sudoeste 0 -- -- 67
2018-11-23 08:00:00 11 8 Sudoeste 13 Sudoeste 0 -- -- 71
2018-11-23 07:00:00 10.4 6 Sudoeste 8 Sudoeste 0 -- -- 68
2018-11-23 06:00:00 10.7 5 Sur 7 Sur 0 -- -- 68
2018-11-23 05:00:00 10.9 5 Sur 13 Sudeste 0 -- -- 67
2018-11-23 04:00:00 11.7 2 Norte 14 Este 0 -- -- 63
2018-11-23 03:00:00 11.2 3 Nordeste 19 Sudeste 0 -- -- 66
2018-11-23 02:00:00 11.2 6 Sudeste 16 Sur 0 -- -- 65
2018-11-23 01:00:00 11.5 13 Sur 21 Sur 0 -- -- 64
2018-11-23 00:00:00 11.8 11 Sudoeste 19 Sudoeste 0 -- -- 61
2018-11-22 23:00:00 11.9 9 Sur 29 Sur 0 -- -- 65
2018-11-22 22:00:00 11.7 10 Este 27 Sudoeste 0 -- -- 65
2018-11-22 21:00:00 12.1 12 Sur 30 Sur 0 -- -- 61
2018-11-22 20:00:00 10.7 8 Sur 32 Sur 0 -- -- 68
2018-11-22 19:00:00 11.3 8 Sur 25 Sur 0 -- -- 64
2018-11-22 18:00:00 12.2 20 Sur 32 Sudeste 0 -- -- 62
2018-11-22 17:00:00 13.6 22 Sur 31 Sudeste 0 -- -- 57
2018-11-22 16:00:00 15.7 6 Sur 31 Sudoeste 0 -- -- 51
2018-11-22 15:00:00 16.6 14 Sudoeste 38 Sur 0 -- -- 44
2018-11-22 14:00:00 16.6 22 Sur 40 Sur 0 -- -- 45
2018-11-22 13:00:00 16.2 23 Sur 45 Sur 0 -- -- 47
2018-11-22 12:00:00 14.8 24 Sur 41 Sur 0 -- -- 58
2018-11-22 11:00:00 13.9 27 Sur 36 Sudeste 0 -- -- 59
2018-11-22 10:00:00 12 23 Sur 32 Sur 0 -- -- 67
2018-11-22 09:00:00 10.9 21 Sur 31 Sur 0 -- -- 66
2018-11-22 08:00:00 10.7 17 Sur 35 Sur 0 -- -- 63
2018-11-22 07:00:00 9.5 10 Sur 22 Sudeste 0 -- -- 66
2018-11-22 06:00:00 10.1 15 Sur 30 Sur 0 -- -- 64
2018-11-22 05:00:00 10.4 11 Sur 25 Sur 0 -- -- 60
2018-11-22 04:00:00 10.7 19 Sur 32 Sur 0 -- -- 61
2018-11-22 03:00:00 9.4 4 Nordeste 22 Sur 0 -- -- 69
2018-11-22 02:00:00 10.7 5 Sudeste 30 Sur 0 -- -- 62
2018-11-22 01:00:00 11 14 Sur 28 Sur 0 -- -- 62
2018-11-22 00:00:00 11.8 22 Sur 30 Sur 0 -- -- 58
2018-11-21 23:00:00 12.3 20 Sur 32 Sur 0 -- -- 55
2018-11-21 22:00:00 11.2 14 Sur 22 Sur 0 -- -- 66
2018-11-21 21:00:00 10 6 Sur 13 Sur 0 -- -- 71
2018-11-21 20:00:00 10.3 5 Sur 12 Sudeste 0 -- -- 68
2018-11-21 19:00:00 10.1 5 Sur 12 Sur 0 -- -- 70
2018-11-21 18:00:00 11 4 Sudeste 12 Este 0 -- -- 74
2018-11-21 17:00:00 13.3 4 Sur 8 Nordeste 0 -- -- 68
2018-11-21 16:00:00 13.9 2 Nordeste 12 Nordeste 0 -- -- 69
2018-11-21 15:00:00 13.3 5 Nordeste 11 Nordeste 0 -- -- 71
2018-11-21 14:00:00 13.4 5 Nordeste 12 Este 0 -- -- 62
2018-11-21 13:00:00 13.2 3 Nordeste 7 Sur 0 -- -- 61
2018-11-21 12:00:00 11.7 4 Sudoeste 13 Sur 0 -- -- 72
2018-11-21 11:00:00 9.5 5 Sudoeste 19 Sudoeste 0 -- -- 81
2018-11-21 10:00:00 7.3 5 Sur 14 Sudoeste 0 -- -- 88
2018-11-21 09:00:00 6.3 8 Sudoeste 14 Oeste 0 -- -- 89
2018-11-21 08:00:00 4.8 10 Sur 16 Sudoeste 0 -- -- 91
2018-11-21 07:00:00 4.8 8 Sudoeste 14 Sudoeste 0 -- -- 93
2018-11-21 06:00:00 5.1 9 Sudoeste 17 Sudoeste 0 -- -- 91
2018-11-21 05:00:00 4 6 Sur 10 Sudoeste 0 -- -- 92
2018-11-21 04:00:00 5.2 6 Sudoeste 8 Sudoeste 0 -- -- 91
2018-11-21 03:00:00 5.8 4 Sudeste 12 Este 0 -- -- 88
2018-11-21 02:00:00 5.9 4 Este 11 Este 0 -- -- 92
2018-11-21 01:00:00 6.1 4 Este 8 Sudeste 0 -- -- 94
2018-11-21 00:00:00 6.3 5 Sudeste 8 Sudeste 0 -- -- 95
2018-11-20 23:00:00 6 3 Este 7 Sudeste 0 -- -- 94
2018-11-20 22:00:00 6.3 3 Sudeste 7 Sur 0 -- -- 92
2018-11-20 21:00:00 6.7 4 Sudoeste 9 Sur 0 -- -- 89
2018-11-20 20:00:00 6.7 6 Sur 8 Sur 0 -- -- 88
2018-11-20 19:00:00 6.6 4 Este 9 Este 0 -- -- 87
2018-11-20 18:00:00 7.3 3 Este 6 Nordeste 0 -- -- 84
2018-11-20 17:00:00 7.9 0 Calma 6 Nordeste 0 -- -- 82
2018-11-20 16:00:00 8.4 3 Nordeste 7 Nordeste 0 -- -- 79
2018-11-20 15:00:00 8.6 4 Sur 13 Este 0 -- -- 80
2018-11-20 14:00:00 8.8 5 Este 17 Sudeste 0 -- -- 81
2018-11-20 13:00:00 7.7 6 Sudeste 12 Este 0 -- -- 86
2018-11-20 12:00:00 7.1 7 Sudeste 16 Este 0 -- -- 88
2018-11-20 11:00:00 6.9 8 Nordeste 21 Nordeste 0 -- -- 89
2018-11-20 10:00:00 6.8 4 Este 16 Este 0 -- -- 93
2018-11-20 09:00:00 6.8 7 Nordeste 15 Nordeste 0 -- -- 95
2018-11-20 08:00:00 7 3 Nordeste 18 Norte 0.2 -- -- 95
2018-11-20 07:00:00 7.6 3 Norte 12 Este 0 -- -- 93
2018-11-20 06:00:00 7.8 4 Este 14 Este 0.2 -- -- 92
2018-11-20 05:00:00 8.2 4 Este 9 Este 0 -- -- 94
2018-11-20 04:00:00 8.4 4 Sudeste 8 Nordeste 0 -- -- 94
2018-11-20 03:00:00 8.4 2 Sudeste 8 Nordeste 0 -- -- 96
2018-11-20 02:00:00 8.6 5 Nordeste 11 Nordeste 0 -- -- 96
2018-11-20 01:00:00 9.1 3 Norte 5 Nordeste 0.2 -- -- 95
2018-11-20 00:00:00 9.7 0 Calma 6 Nordeste 0.6 -- -- 92
2018-11-19 23:00:00 10.2 4 Nordeste 17 Nordeste 0 -- -- 88
2018-11-19 22:00:00 10.5 6 Norte 13 Nordeste 0 -- -- 91
2018-11-19 21:00:00 10.4 0 Calma 5 Norte 0 -- -- 92
2018-11-19 20:00:00 10.6 3 Norte 9 Norte 0 -- -- 91
2018-11-19 19:00:00 10.5 5 Norte 9 Norte 0 -- -- 93
2018-11-19 18:00:00 10.8 4 Norte 11 Nordeste 0 -- -- 93
2018-11-19 17:00:00 11.8 4 Norte 15 Norte 0 -- -- 89
2018-11-19 16:00:00 13.3 10 Nordeste 22 Nordeste 0 -- -- 85
2018-11-19 15:00:00 15.1 10 Nordeste 21 Nordeste 0 -- -- 80
2018-11-19 14:00:00 15.9 8 Nordeste 17 Nordeste 0 -- -- 69
2018-11-19 13:00:00 15.4 8 Nordeste 16 Nordeste 0 -- -- 69
2018-11-19 12:00:00 15.2 9 Nordeste 17 Nordeste 0 -- -- 70
2018-11-19 11:00:00 15.5 4 Sudeste 10 Este 0 -- -- 63
2018-11-19 10:00:00 13.7 10 Sudeste 16 Sudeste 0 -- -- 70
2018-11-19 09:00:00 11.7 10 Sudeste 20 Sudeste 0 -- -- 75
2018-11-19 08:00:00 10.5 8 Este 24 Sudeste 0 -- -- 79
2018-11-19 07:00:00 11.7 15 Sudeste 32 Sudeste 0 -- -- 73
2018-11-19 06:00:00 11.6 14 Sudeste 27 Sudeste 0 -- -- 75
2018-11-19 05:00:00 10.7 8 Este 18 Sur 0 -- -- 79
2018-11-19 04:00:00 11.5 5 Sur 29 Sudeste 0 -- -- 75
2018-11-19 03:00:00 12.5 15 Sudeste 33 Sudeste 0 -- -- 73
2018-11-19 02:00:00 13.2 19 Sudeste 29 Sudeste 0 -- -- 70
2018-11-19 01:00:00 12.4 10 Sudeste 30 Sudeste 0 -- -- 73
2018-11-19 00:00:00 13 21 Sudeste 34 Sudeste 0 -- -- 72
2018-11-18 23:00:00 12 5 Este 17 Sudeste 0 -- -- 79
2018-11-18 22:00:00 12.4 8 Este 14 Este 0 -- -- 78
2018-11-18 21:00:00 13.1 8 Sudeste 25 Sur 0 -- -- 74
2018-11-18 20:00:00 13.4 17 Sur 29 Sudeste 0 -- -- 74
2018-11-18 19:00:00 13.6 8 Sudeste 25 Este 0 -- -- 76
2018-11-18 18:00:00 13.4 10 Este 21 Este 0 -- -- 76
2018-11-18 17:00:00 14.7 11 Sudeste 22 Este 0 -- -- 71
2018-11-18 16:00:00 15.6 6 Este 15 Este 0 -- -- 77
2018-11-18 15:00:00 15.9 8 Nordeste 16 Nordeste 0 -- -- 72
2018-11-18 14:00:00 15.5 8 Nordeste 12 Nordeste 0 -- -- 75
2018-11-18 13:00:00 14.9 5 Nordeste 8 Este 0 -- -- 77
2018-11-18 12:00:00 14.7 4 Nordeste 9 Sudeste 0 -- -- 78
2018-11-18 11:00:00 13.5 4 Sur 9 Sur 0 -- -- 85
2018-11-18 10:00:00 11.8 5 Sudoeste 10 Sudoeste 0 -- -- 92
2018-11-18 09:00:00 9.3 5 Sudoeste 14 Sudoeste 0 -- -- 92
2018-11-18 08:00:00 7.3 6 Sur 8 Sur 0 -- -- 91
2018-11-18 07:00:00 9.1 3 Sudoeste 6 Sudoeste 0 -- -- 90
2018-11-18 06:00:00 9.3 5 Sudoeste 13 Sudoeste 0 -- -- 88
2018-11-18 05:00:00 8.6 5 Sudoeste 9 Sudoeste 0 -- -- 90
2018-11-18 04:00:00 9.4 5 Sudoeste 12 Sudoeste 0 -- -- 87
2018-11-18 03:00:00 9.9 5 Sudoeste 10 Sudoeste 0 -- -- 89
2018-11-18 02:00:00 10 4 Sur 12 Sudoeste 0 -- -- 87
2018-11-18 01:00:00 10.6 2 Sur 10 Sudoeste 0 -- -- 86
2018-11-18 00:00:00 11.7 6 Sur 13 Sudoeste 0 -- -- 82
2018-11-17 23:00:00 12.5 7 Sudoeste 12 Sudoeste 0 -- -- 81
2018-11-17 22:00:00 13.3 5 Sudoeste 11 Sudoeste 0 -- -- 79
2018-11-17 21:00:00 13.3 5 Sudoeste 11 Sudoeste 0 -- -- 81
2018-11-17 20:00:00 14.9 5 Sudoeste 9 Sudoeste 0 -- -- 77
2018-11-17 19:00:00 15.6 3 Este 10 Nordeste 0 -- -- 80
2018-11-17 18:00:00 17.1 6 Nordeste 11 Nordeste 0 -- -- 74
2018-11-17 17:00:00 19.1 3 Noroeste 11 Noroeste 0 -- -- 61
2018-11-17 16:00:00 21.3 4 Norte 15 Sudeste 0 -- -- 60
2018-11-17 15:00:00 21.8 8 Sur 19 Sur 0 -- -- 54
2018-11-17 14:00:00 21.3 15 Sudeste 22 Sudeste 0 -- -- 54
2018-11-17 13:00:00 20.7 13 Sudeste 25 Sudeste 0 -- -- 58
2018-11-17 12:00:00 19.6 15 Sur 24 Sur 0 -- -- 60
2018-11-17 11:00:00 18.1 16 Sur 27 Sur 0 -- -- 65
2018-11-17 10:00:00 16.6 12 Sur 26 Sur 0 -- -- 67
2018-11-17 09:00:00 15.2 11 Sudeste 30 Sudeste 0 -- -- 70
2018-11-17 08:00:00 14.5 12 Sudeste 36 Sur 0 -- -- 73
2018-11-17 07:00:00 14.3 14 Sur 24 Sur 0 -- -- 74
2018-11-17 06:00:00 14.2 13 Sur 20 Sur 0 -- -- 76
2018-11-17 05:00:00 13.9 11 Sur 17 Sur 0 -- -- 78
2018-11-17 04:00:00 14.7 13 Sur 25 Sur 0 -- -- 75
2018-11-17 03:00:00 15.4 17 Sur 26 Sur 0 -- -- 73
2018-11-17 02:00:00 15.1 14 Sur 29 Sur 0 -- -- 75
2018-11-17 01:00:00 15.4 17 Sur 30 Sudeste 0 -- -- 74
2018-11-17 00:00:00 15.6 21 Sur 37 Sur 0 -- -- 74
2018-11-16 23:00:00 15.8 18 Sur 30 Sudeste 0 -- -- 74
2018-11-16 22:00:00 15.9 20 Sudeste 32 Sur 0 -- -- 73
2018-11-16 21:00:00 16.1 19 Sudeste 36 Sudeste 0 -- -- 72
2018-11-16 20:00:00 15.9 8 Sur 21 Sudeste 0 -- -- 73
2018-11-16 19:00:00 16.5 14 Sur 23 Sur 0 -- -- 73
2018-11-16 18:00:00 17 8 Sudeste 14 Sudeste 0 -- -- 71
2018-11-16 17:00:00 19.4 8 Sur 17 Sudeste 0 -- -- 65
2018-11-16 16:00:00 21.2 11 Sudeste 21 Sudeste 0 -- -- 61
2018-11-16 15:00:00 21.2 12 Sudeste 25 Sudeste 0 -- -- 59
2018-11-16 14:00:00 21.1 14 Sudeste 25 Sur 0 -- -- 60
2018-11-16 13:00:00 20.5 15 Sudeste 24 Sudeste 0 -- -- 61
2018-11-16 12:00:00 19.6 9 Sudeste 14 Sudeste 0 -- -- 66
2018-11-16 11:00:00 17.7 5 Sur 12 Sudoeste 0 -- -- 70
2018-11-16 10:00:00 15.3 8 Sur 12 Sur 0 -- -- 78
2018-11-16 09:00:00 12.7 6 Sudoeste 12 Sudoeste 0 -- -- 83
2018-11-16 08:00:00 12.2 4 Sur 9 Sudeste 0 -- -- 83
2018-11-16 07:00:00 12.2 6 Sur 11 Sur 0 -- -- 85
2018-11-16 06:00:00 12.4 5 Sudeste 10 Sudeste 0 -- -- 85
2018-11-16 05:00:00 12.6 9 Sur 20 Sur 0 -- -- 84
2018-11-16 04:00:00 13.7 13 Sudeste 19 Sudeste 0 -- -- 82
2018-11-16 03:00:00 13.1 11 Sur 20 Sudeste 0 -- -- 85
2018-11-16 02:00:00 12.5 7 Sur 17 Sur 0 -- -- 87
2018-11-16 01:00:00 11.8 7 Sur 15 Sudoeste 0 -- -- 87
2018-11-16 00:00:00 12.2 8 Sudoeste 12 Sudoeste 0 -- -- 87
2018-11-15 23:00:00 13.1 4 Sudoeste 11 Sudoeste 0 -- -- 83
2018-11-15 22:00:00 13.3 5 Sudoeste 10 Sudoeste 0 -- -- 84
2018-11-15 21:00:00 13.9 4 Sur 7 Sur 0 -- -- 81
2018-11-15 20:00:00 13.1 3 Sudoeste 6 Sudoeste 0 -- -- 85
2018-11-15 19:00:00 14.3 2 Norte 7 Sudoeste 0 -- -- 75
2018-11-15 18:00:00 15.5 3 Sudoeste 16 Noroeste 0 -- -- 71
2018-11-15 17:00:00 16.7 9 Noroeste 19 Noroeste 0 -- -- 68
2018-11-15 16:00:00 18 4 Oeste 12 Noroeste 0 -- -- 64
2018-11-15 15:00:00 20.2 5 Noroeste 10 Noroeste 0 -- -- 66
2018-11-15 14:00:00 19.6 8 Norte 13 Noroeste 0 -- -- 67
2018-11-15 13:00:00 19.5 8 Norte 13 Noroeste 0 -- -- 69
2018-11-15 12:00:00 20.1 5 Norte 8 Sur 0 -- -- 68
2018-11-15 11:00:00 19.7 6 Sur 14 Sur 0 -- -- 64
2018-11-15 10:00:00 17.5 11 Sur 22 Sur 0 -- -- 70
2018-11-15 09:00:00 15.3 14 Sur 21 Sur 0 -- -- 74
2018-11-15 08:00:00 14.3 12 Sur 23 Sur 0 -- -- 76
2018-11-15 07:00:00 14.5 14 Sur 24 Sur 0 -- -- 77
2018-11-15 06:00:00 13.9 9 Sur 20 Sur 0 -- -- 79
2018-11-15 05:00:00 14.2 6 Sudeste 10 Sudeste 0 -- -- 76
2018-11-15 04:00:00 13.9 6 Sur 15 Sudeste 0 -- -- 78
2018-11-15 03:00:00 14.1 8 Sur 24 Sur 0 -- -- 77
2018-11-15 02:00:00 15.5 12 Sudeste 21 Sur 0 -- -- 74
2018-11-15 01:00:00 13.9 2 Sur 19 Sur 0 -- -- 82
2018-11-15 00:00:00 13.7 15 Sur 23 Sur 0 -- -- 85
2018-11-14 23:00:00 12.8 2 Este 9 Sudeste 0 -- -- 87
2018-11-14 22:00:00 13 0 Calma -- -- 0 -- -- 86
2018-11-14 21:00:00 12.4 0 Calma 5 Norte 0 -- -- 89
2018-11-14 20:00:00 12.3 4 Norte 6 Noroeste 0 -- -- 89
2018-11-14 19:00:00 12.8 2 Norte 5 Norte 0 -- -- 91
2018-11-14 18:00:00 13.4 5 Norte 12 Norte 0 -- -- 91
2018-11-14 17:00:00 15 6 Norte 11 Norte 0 -- -- 81
2018-11-14 16:00:00 17 7 Noroeste 18 Oeste 0 -- -- 70
2018-11-14 15:00:00 17.8 6 Norte 17 Noroeste 0 -- -- 70
2018-11-14 14:00:00 18.6 8 Norte 22 Sur 0 -- -- 73
2018-11-14 13:00:00 20 18 Sur 26 Sudeste 0 -- -- 60
2018-11-14 12:00:00 18.9 13 Sur 20 Sudeste 0 -- -- 67
2018-11-14 11:00:00 16.5 5 Sur 13 Sudoeste 0 -- -- 73
2018-11-14 10:00:00 14 8 Sudoeste 13 Sudoeste 0 -- -- 83
2018-11-14 09:00:00 11.1 9 Sudoeste 14 Sudoeste 0 -- -- 86
2018-11-14 08:00:00 10.2 0 Calma 11 Sudoeste 0 -- -- 88
2018-11-14 07:00:00 10.4 5 Sudoeste 13 Sudoeste 0 -- -- 87
2018-11-14 06:00:00 9.9 8 Sudoeste 14 Sudoeste 0.2 -- -- 92
2018-11-14 05:00:00 9.9 4 Sur 7 Sudoeste 0 -- -- 96
2018-11-14 04:00:00 10.1 0 Calma 6 Sudoeste 0 -- -- 94
2018-11-14 03:00:00 10.8 0 Calma 5 Sur 0 -- -- 97
2018-11-14 02:00:00 10.7 0 Calma 10 Oeste 0 -- -- 97
2018-11-14 01:00:00 10.4 4 Sur 9 Oeste 0 -- -- 96
2018-11-14 00:00:00 11.1 8 Sudoeste 21 Sudoeste 0 -- -- 97
2018-11-13 23:00:00 10.8 2 Sudeste 8 Noroeste 0 -- -- 99
2018-11-13 22:00:00 10.5 6 Sudeste 10 Sudeste 0 -- -- 100
2018-11-13 21:00:00 10.5 4 Sur 8 Sur 0 -- -- 97
2018-11-13 20:00:00 11.5 0 Calma -- -- 0 -- -- 97
2018-11-13 19:00:00 12 0 Calma 11 Este 0 -- -- 95
2018-11-13 18:00:00 12.8 5 Nordeste 11 Nordeste 0 -- -- 93
2018-11-13 17:00:00 13.9 9 Nordeste 19 Nordeste 0 -- -- 88
2018-11-13 16:00:00 15.2 9 Nordeste 23 Nordeste 0 -- -- 84
2018-11-13 15:00:00 14.9 11 Nordeste 23 Nordeste 0 -- -- 85
2018-11-13 14:00:00 15.7 9 Nordeste 18 Norte 0 -- -- 82
2018-11-13 13:00:00 15.3 9 Nordeste 18 Nordeste 0 -- -- 78
2018-11-13 12:00:00 14.5 7 Nordeste 16 Nordeste 0 -- -- 81
2018-11-13 11:00:00 13.9 6 Este 13 Sudeste 0 -- -- 84
2018-11-13 10:00:00 12.1 5 Sur 10 Sudoeste 0 -- -- 87
2018-11-13 09:00:00 10.2 8 Sudoeste 13 Sudoeste 0 -- -- 91
2018-11-13 08:00:00 9.8 0 Calma 9 Sudoeste 0 -- -- 92
2018-11-13 07:00:00 10.2 4 Sudoeste 12 Sudoeste 0 -- -- 91
2018-11-13 06:00:00 9.6 7 Sudoeste 12 Sudoeste 0 -- -- 94
2018-11-13 05:00:00 9.2 7 Sudoeste 14 Sudoeste 0 -- -- 97
2018-11-13 04:00:00 9.1 4 Sudoeste 10 Sudoeste 0 -- -- 96
2018-11-13 03:00:00 9.3 5 Sudoeste 10 Sudoeste 0 -- -- 96
2018-11-13 02:00:00 10.3 6 Sudoeste 13 Sudoeste 0 -- -- 94
2018-11-13 01:00:00 11 7 Sudoeste 12 Sudoeste 0 -- -- 94
2018-11-13 00:00:00 11.6 3 Oeste 10 Sudoeste 0 -- -- 92
2018-11-12 23:00:00 11.7 6 Sudoeste 9 Sudoeste 0 -- -- 93
2018-11-12 22:00:00 11.8 3 Sudoeste 9 Sudoeste 0 -- -- 92
2018-11-12 21:00:00 11.7 4 Sudoeste 8 Sudoeste 0 -- -- 94
2018-11-12 20:00:00 12 2 Oeste 5 Oeste 0 -- -- 94
2018-11-12 19:00:00 12.2 0 Calma 12 Noroeste 0 -- -- 92
2018-11-12 18:00:00 12.4 5 Noroeste 12 Noroeste 0 -- -- 92
2018-11-12 17:00:00 12.8 7 Noroeste 13 Noroeste 0 -- -- 90
2018-11-12 16:00:00 13.2 8 Norte 15 Norte 0 -- -- 86
2018-11-12 15:00:00 13.9 10 Norte 13 Noroeste 0 -- -- 82
2018-11-12 14:00:00 14 3 Norte 5 Nordeste 0 -- -- 84
2018-11-12 13:00:00 13.8 3 Sur 7 Sudeste 0 -- -- 85
2018-11-12 12:00:00 13.2 3 Sudeste 9 Sudeste 0 -- -- 91
2018-11-12 11:00:00 13.2 7 Sur 10 Sur 0 -- -- 98
2018-11-12 10:00:00 11 4 Sur 9 Sur 0 -- -- 100
2018-11-12 09:00:00 10.2 7 Sudoeste 11 Sudoeste 0 -- -- 100
2018-11-12 08:00:00 9.8 4 Sudoeste 6 Sudeste 0 -- -- 100
2018-11-12 07:00:00 9.9 5 Sur 11 Sudeste 0.2 -- -- 100
2018-11-12 06:00:00 10.3 5 Sudeste 8 Sudeste 0.2 -- -- 100
2018-11-12 05:00:00 10.2 0 Calma 8 Norte 0.4 -- -- 100
2018-11-12 04:00:00 10.3 6 Norte 13 Norte 0.8 -- -- 100
2018-11-12 03:00:00 10.2 8 Noroeste 21 Norte 0.4 -- -- 100
2018-11-12 02:00:00 10.3 12 Norte 20 Norte 1 -- -- 100
2018-11-12 01:00:00 10.9 11 Norte 15 Norte 1.6 -- -- 100
2018-11-12 00:00:00 11.4 0 Calma 0 Calma 1.4 -- -- 100
2018-11-11 23:00:00 11.5 0 Calma 8 Este 1 -- -- 100
2018-11-11 22:00:00 11.5 4 Este 10 Sudeste 0.8 -- -- 100
2018-11-11 21:00:00 11.6 5 Sudeste 10 Sudeste 0.6 -- -- 100
2018-11-11 20:00:00 11.6 3 Sur 5 Sudeste 0.8 -- -- 100
2018-11-11 19:00:00 11.6 0 Calma 6 Norte 3.8 -- -- 100
2018-11-11 18:00:00 11.6 0 Calma 7 Nordeste 8 -- -- 100
2018-11-11 17:00:00 12.3 3 Norte 11 Norte 3 -- -- 99
2018-11-11 16:00:00 12.8 4 Norte 12 Oeste 1.2 -- -- 98
2018-11-11 15:00:00 13.1 9 Norte 23 Noroeste 1.6 -- -- 97
2018-11-11 14:00:00 14.1 15 Noroeste 36 Noroeste 0 -- -- 89
2018-11-11 13:00:00 15.4 22 Noroeste 37 Noroeste 0 -- -- 87
2018-11-11 12:00:00 18.6 22 Sur 36 Sur 0 -- -- 58
2018-11-11 11:00:00 17.8 21 Sur 37 Sur 0 -- -- 62
2018-11-11 10:00:00 16.8 10 Sur 19 Sur 0 -- -- 66
2018-11-11 09:00:00 17 13 Sudoeste 28 Sur 0 -- -- 61
2018-11-11 08:00:00 16.2 15 Sur 28 Sur 0 -- -- 60
2018-11-11 07:00:00 17.1 23 Sur 49 Sur 0 -- -- 55
2018-11-11 06:00:00 17.2 27 Sur 60 Sudoeste 0 -- -- 56
2018-11-11 05:00:00 16.7 22 Sur 40 Sur 0 -- -- 59
2018-11-11 04:00:00 16.7 25 Sur 48 Sur 0 -- -- 58
2018-11-11 03:00:00 16 32 Sur 50 Sur 0 -- -- 62
2018-11-11 02:00:00 12.4 13 Sur 23 Sur 0 -- -- 75
2018-11-11 01:00:00 11.7 8 Sur 17 Sur 0 -- -- 74
2018-11-11 00:00:00 11.6 11 Sur 18 Sur 0 -- -- 75
2018-11-10 23:00:00 10.5 10 Sudoeste 14 Sudoeste 0 -- -- 89
2018-11-10 22:00:00 9.9 8 Sur 11 Sudoeste 0 -- -- 94
2018-11-10 21:00:00 11.1 8 Sudoeste 13 Sur 0 -- -- 89
2018-11-10 20:00:00 11.9 9 Sur 11 Sur 0 -- -- 86
2018-11-10 19:00:00 12.6 6 Sur 12 Sudeste 0 -- -- 85
2018-11-10 18:00:00 13.8 6 Este 11 Este 0 -- -- 82
2018-11-10 17:00:00 15.1 4 Este 27 Noroeste 0 -- -- 77
2018-11-10 16:00:00 15.5 18 Norte 24 Norte 0 -- -- 72
2018-11-10 15:00:00 16.6 8 Nordeste 17 Nordeste 0 -- -- 79
2018-11-10 14:00:00 16.8 9 Este 16 Este 0 -- -- 81
2018-11-10 13:00:00 16.3 5 Norte 13 Nordeste 0 -- -- 85
2018-11-10 12:00:00 16.5 5 Nordeste 13 Nordeste 0 -- -- 85
2018-11-10 11:00:00 15.3 6 Sudeste 13 Sudeste 0 -- -- 95
2018-11-10 10:00:00 13.6 10 Sur 14 Sur 0.2 -- -- 100
2018-11-10 09:00:00 12.4 3 Sudoeste 9 Sudoeste 0.2 -- -- 100
2018-11-10 08:00:00 12.2 0 Calma 6 Sudeste 0 -- -- 100
2018-11-10 07:00:00 12.4 3 Sudeste 16 Norte 0 -- -- 100
2018-11-10 06:00:00 12.5 12 Norte 20 Norte 0.2 -- -- 99
2018-11-10 05:00:00 12.6 6 Norte 22 Norte 0 -- -- 99
2018-11-10 04:00:00 13.1 14 Noroeste 25 Noroeste 0 -- -- 98
2018-11-10 03:00:00 14.4 15 Noroeste 41 Noroeste 0.2 -- -- 94
2018-11-10 02:00:00 18.3 26 Sudoeste 44 Sur 0 -- -- 55
2018-11-10 01:00:00 15.5 17 Sur 33 Sur 0 -- -- 66
2018-11-10 00:00:00 15.9 21 Sur 38 Sur 0 -- -- 62